createdAt,value
2019-05-29T00:01:49.128Z,47.90
2019-05-29T00:06:40.768Z,47.30
2019-05-29T00:11:32.413Z,46.90
2019-05-29T00:16:24.054Z,47.80
2019-05-29T00:21:14.999Z,47.70
2019-05-29T00:26:06.308Z,48.40
2019-05-29T00:30:56.811Z,48.10
2019-05-29T00:35:48.447Z,47.70
2019-05-29T00:40:39.347Z,47.70
2019-05-29T00:45:30.985Z,48.70
2019-05-29T00:50:22.610Z,47.20
2019-05-29T00:55:14.597Z,47.20
2019-05-29T01:00:04.411Z,48.00
2019-05-29T01:04:55.302Z,48.30
2019-05-29T01:09:46.244Z,49.10
2019-05-29T01:14:49.218Z,48.10
2019-05-29T01:19:28.067Z,47.50
2019-05-29T01:24:18.978Z,48.20
2019-05-29T01:29:09.875Z,49.00
2019-05-29T01:34:01.501Z,47.60
2019-05-29T01:38:53.142Z,48.00
2019-05-29T01:43:44.782Z,48.90
2019-05-29T01:48:36.431Z,49.50
2019-05-29T01:53:27.990Z,49.40
2019-05-29T01:58:18.243Z,48.20
2019-05-29T02:03:09.134Z,48.00
2019-05-29T02:08:00.038Z,48.80
2019-05-29T02:12:50.936Z,49.30
2019-05-29T02:17:41.855Z,48.90
2019-05-29T02:22:32.743Z,47.90
2019-05-29T02:27:25.506Z,49.40
2019-05-29T02:32:15.301Z,49.30
2019-05-29T02:37:06.947Z,48.30
2019-05-29T02:41:57.896Z,48.20
2019-05-29T02:46:49.500Z,49.10
2019-05-29T02:51:40.392Z,49.10
2019-05-29T02:56:32.039Z,49.30
2019-05-29T03:01:25.156Z,48.40
2019-05-29T03:06:14.635Z,48.30
2019-05-29T03:11:06.358Z,49.80
2019-05-29T03:16:09.478Z,49.70
2019-05-29T03:20:48.186Z,50.20
2019-05-29T03:25:39.083Z,49.10
2019-05-29T03:30:37.387Z,49.50
2019-05-29T03:35:22.470Z,50.30
2019-05-29T03:40:14.090Z,49.80
2019-05-29T03:45:04.984Z,49.80
2019-05-29T03:49:55.887Z,48.80
2019-05-29T03:54:46.782Z,49.00
2019-05-29T03:59:37.714Z,49.90
2019-05-29T04:04:29.045Z,50.30
2019-05-29T04:09:19.533Z,50.00
2019-05-29T04:14:10.434Z,48.90
2019-05-29T04:19:02.070Z,50.30
2019-05-29T04:23:53.752Z,50.90
2019-05-29T04:28:44.638Z,50.80
2019-05-29T04:33:36.784Z,50.00
2019-05-29T04:38:26.441Z,49.10
2019-05-29T04:43:17.344Z,50.50
2019-05-29T04:48:08.235Z,50.70
2019-05-29T04:52:59.135Z,51.10
2019-05-29T04:57:50.929Z,49.80
2019-05-29T05:02:42.203Z,49.30
2019-05-29T05:07:33.245Z,50.20
2019-05-29T05:12:24.057Z,51.10
2019-05-29T05:17:25.901Z,51.30
2019-05-29T05:22:05.870Z,49.70
2019-05-29T05:26:56.767Z,49.50
2019-05-29T05:31:47.677Z,50.40
2019-05-29T05:36:38.879Z,51.30
2019-05-29T05:41:30.785Z,50.40
2019-05-29T05:46:24.705Z,49.80
2019-05-29T05:51:12.827Z,49.70
2019-05-29T05:56:03.710Z,50.60
2019-05-29T06:00:55.346Z,51.50
2019-05-29T06:05:46.987Z,50.10
2019-05-29T06:10:38.631Z,49.70
2019-05-29T06:15:30.259Z,50.60
2019-05-29T06:20:21.185Z,50.60
2019-05-29T06:25:12.140Z,51.40
2019-05-29T06:30:03.923Z,51.50
2019-05-29T06:34:54.812Z,50.10
2019-05-29T06:39:45.763Z,49.50
2019-05-29T06:44:39.260Z,50.20
2019-05-29T06:49:27.622Z,51.10
2019-05-29T06:54:18.556Z,51.50
2019-05-29T06:59:09.526Z,50.10
2019-05-29T07:04:11.445Z,49.50
2019-05-29T07:08:51.347Z,50.10
2019-05-29T07:13:45.308Z,50.60
2019-05-29T07:18:34.059Z,50.40
2019-05-29T07:23:24.959Z,50.40
2019-05-29T07:28:16.614Z,49.50
2019-05-29T07:33:07.544Z,49.30
2019-05-29T07:37:58.456Z,50.00
2019-05-29T07:42:55.145Z,50.00
2019-05-29T07:47:40.559Z,49.80
2019-05-29T07:52:32.014Z,48.40
2019-05-29T07:57:23.660Z,48.80
2019-05-29T08:02:14.555Z,48.80
2019-05-29T08:07:05.442Z,49.50
2019-05-29T08:11:56.336Z,49.20
2019-05-29T08:16:48.104Z,48.30
2019-05-29T08:21:38.305Z,47.80
2019-05-29T08:26:29.148Z,47.80
2019-05-29T08:31:20.794Z,49.00
2019-05-29T08:36:12.425Z,48.90
2019-05-29T08:41:05.982Z,47.80
2019-05-29T08:45:54.997Z,47.80
2019-05-29T08:50:45.897Z,47.50
2019-05-29T08:55:37.551Z,48.20
2019-05-29T09:00:28.439Z,48.20
2019-05-29T09:05:19.332Z,47.70
2019-05-29T09:10:10.237Z,47.90
2019-05-29T09:15:01.151Z,47.00
2019-05-29T09:19:52.064Z,46.20
2019-05-29T09:24:42.955Z,47.50
2019-05-29T09:29:34.591Z,47.20
2019-05-29T09:34:26.230Z,47.70
2019-05-29T09:39:18.404Z,47.60
2019-05-29T09:44:08.067Z,46.00
2019-05-29T09:49:01.497Z,46.50
2019-05-29T09:53:49.921Z,46.80
2019-05-29T09:58:40.816Z,47.90
2019-05-29T10:03:32.463Z,46.50
2019-05-29T10:08:23.358Z,46.50
2019-05-29T10:13:14.994Z,46.00
2019-05-29T10:18:13.275Z,46.90
2019-05-29T10:22:57.546Z,46.90
2019-05-29T10:27:48.472Z,46.60
2019-05-29T10:32:40.103Z,45.80
2019-05-29T10:37:31.207Z,45.80
2019-05-29T10:42:22.136Z,45.10
2019-05-29T10:47:13.030Z,46.00
2019-05-29T10:52:14.572Z,47.20
2019-05-29T10:56:55.061Z,46.70
2019-05-29T11:01:46.930Z,46.40
2019-05-29T11:06:40.556Z,45.70
2019-05-29T11:11:27.599Z,45.60
2019-05-29T11:16:18.494Z,46.40
2019-05-29T11:21:09.396Z,46.60
2019-05-29T11:26:01.039Z,45.50
2019-05-29T11:30:53.584Z,45.40
2019-05-29T11:35:57.173Z,45.20
2019-05-29T11:40:33.911Z,46.10
2019-05-29T11:45:24.825Z,46.00
2019-05-29T11:50:19.894Z,46.40
2019-05-29T11:55:08.304Z,46.30
2019-05-29T12:00:05.885Z,44.30
2019-05-29T12:04:49.310Z,44.70
2019-05-29T12:09:40.964Z,44.70
2019-05-29T12:14:31.883Z,44.70
2019-05-29T12:19:22.794Z,44.80
2019-05-29T12:24:13.686Z,44.00
2019-05-29T12:29:11.012Z,42.30
2019-05-29T12:33:55.493Z,43.50
2019-05-29T12:38:46.418Z,43.50
2019-05-29T12:43:37.323Z,43.40
2019-05-29T12:48:28.224Z,43.30
2019-05-29T12:53:29.712Z,41.40
2019-05-29T12:58:10.039Z,41.70
2019-05-29T13:03:00.959Z,41.50
2019-05-29T13:07:51.860Z,41.80
2019-05-29T13:12:43.819Z,41.70
2019-05-29T13:17:34.457Z,41.70
2019-05-29T13:22:25.358Z,40.80
2019-05-29T13:27:16.287Z,40.10
2019-05-29T13:32:07.640Z,39.10
2019-05-29T13:37:00.812Z,39.00
2019-05-29T13:41:49.074Z,39.50
2019-05-29T13:46:39.989Z,38.70
2019-05-29T13:51:30.925Z,38.60
2019-05-29T13:56:24.300Z,38.70
2019-05-29T14:01:13.506Z,38.70
2019-05-29T14:06:05.861Z,40.20
2019-05-29T14:10:56.068Z,40.20
2019-05-29T14:15:46.992Z,39.50
2019-05-29T14:20:37.902Z,39.10
2019-05-29T14:25:29.539Z,39.70
2019-05-29T14:30:21.170Z,40.80
2019-05-29T14:35:13.341Z,40.60
2019-05-29T14:40:03.737Z,40.60
2019-05-29T14:44:54.639Z,40.80
2019-05-29T14:49:46.286Z,39.00
2019-05-29T14:54:41.857Z,38.90
2019-05-29T14:59:28.157Z,41.10
2019-05-29T15:04:19.067Z,40.40
2019-05-29T15:09:09.988Z,39.70
2019-05-29T15:14:00.876Z,39.10
2019-05-29T15:18:51.795Z,40.80
2019-05-29T15:23:42.857Z,41.60
2019-05-29T15:28:33.774Z,41.90
2019-05-29T15:33:24.690Z,40.40
2019-05-29T15:38:16.942Z,39.50
2019-05-29T15:43:06.680Z,38.50
2019-05-29T15:47:57.451Z,39.30
2019-05-29T15:52:48.348Z,40.60
2019-05-29T15:57:39.332Z,40.60
2019-05-29T16:02:30.988Z,39.10
2019-05-29T16:07:21.887Z,39.00
2019-05-29T16:12:14.769Z,38.00
2019-05-29T16:17:04.446Z,38.00
2019-05-29T16:21:56.075Z,40.10
2019-05-29T16:26:47.742Z,39.50
2019-05-29T16:31:38.697Z,39.50
2019-05-29T16:36:29.586Z,39.50
2019-05-29T16:41:20.483Z,38.60
2019-05-29T16:46:16.914Z,39.30
2019-05-29T16:51:03.037Z,39.30
2019-05-29T16:55:54.762Z,39.80
2019-05-29T17:00:45.606Z,39.80
2019-05-29T17:05:36.499Z,38.70
2019-05-29T17:10:32.152Z,39.60
2019-05-29T17:15:23.048Z,39.60
2019-05-29T17:20:14.779Z,40.00
2019-05-29T17:25:05.590Z,40.00
2019-05-29T17:29:56.474Z,39.50
2019-05-29T17:34:47.375Z,39.30
2019-05-29T17:39:38.266Z,39.40
2019-05-29T17:44:29.908Z,40.70
2019-05-29T17:49:28.842Z,40.60
2019-05-29T17:54:11.748Z,40.90
2019-05-29T17:59:02.658Z,39.40
2019-05-29T18:03:54.292Z,39.80
2019-05-29T18:08:52.092Z,39.70
2019-05-29T18:13:42.991Z,40.40
2019-05-29T18:18:33.890Z,41.10
2019-05-29T18:23:26.185Z,41.90
2019-05-29T18:28:15.886Z,40.70
2019-05-29T18:33:06.774Z,40.30
2019-05-29T18:37:57.671Z,41.00
2019-05-29T18:42:49.303Z,42.20
2019-05-29T18:47:40.969Z,42.60
2019-05-29T18:52:32.850Z,42.60
2019-05-29T18:57:22.921Z,42.00
2019-05-29T19:02:13.718Z,41.20
2019-05-29T19:07:04.692Z,41.50
2019-05-29T19:11:55.606Z,42.00
2019-05-29T19:16:46.547Z,42.30
2019-05-29T19:21:37.542Z,42.70
2019-05-29T19:26:28.795Z,42.50
2019-05-29T19:31:19.364Z,41.60
2019-05-29T19:36:10.267Z,41.90
2019-05-29T19:41:01.208Z,42.30
2019-05-29T19:45:52.129Z,42.70
2019-05-29T19:50:43.043Z,42.90
2019-05-29T19:55:37.824Z,43.20
2019-05-29T20:00:25.930Z,42.20
2019-05-29T20:05:16.534Z,42.60
2019-05-29T20:10:07.630Z,42.50
2019-05-29T20:14:58.566Z,42.70
2019-05-29T20:19:49.472Z,43.20
2019-05-29T20:24:40.362Z,43.90
2019-05-29T20:29:32.376Z,43.00
2019-05-29T20:34:22.358Z,42.40
2019-05-29T20:39:13.262Z,42.70
2019-05-29T20:44:04.208Z,43.00
2019-05-29T20:48:55.099Z,43.60
2019-05-29T20:53:46.003Z,44.00
2019-05-29T20:58:37.756Z,44.50
2019-05-29T21:03:27.819Z,43.10
2019-05-29T21:08:18.775Z,42.90
2019-05-29T21:13:09.677Z,43.30
2019-05-29T21:18:00.589Z,43.60
2019-05-29T21:22:51.491Z,44.20
2019-05-29T21:27:46.928Z,44.70
2019-05-29T21:32:33.406Z,44.00
2019-05-29T21:37:25.114Z,43.40
2019-05-29T21:42:16.014Z,43.40
2019-05-29T21:47:06.902Z,43.70
2019-05-29T21:51:57.867Z,44.30
2019-05-29T21:56:48.775Z,44.80
2019-05-29T22:01:39.875Z,45.30
2019-05-29T22:06:30.607Z,44.00
2019-05-29T22:11:21.498Z,43.50
2019-05-29T22:16:12.406Z,43.80
2019-05-29T22:21:04.046Z,44.80
2019-05-29T22:25:55.294Z,44.80
2019-05-29T22:30:45.915Z,45.30
2019-05-29T22:35:36.820Z,45.50
2019-05-29T22:40:27.710Z,45.20
2019-05-29T22:45:19.419Z,44.00
2019-05-29T22:50:10.341Z,44.60
2019-05-29T22:55:02.332Z,44.40
2019-05-29T22:59:52.161Z,44.90
2019-05-29T23:04:43.067Z,46.30
2019-05-29T23:09:33.965Z,46.90
2019-05-29T23:14:24.881Z,45.00
2019-05-29T23:19:15.796Z,44.20
2019-05-29T23:24:06.690Z,44.40
2019-05-29T23:28:59.283Z,46.50
2019-05-29T23:33:49.299Z,46.40
2019-05-29T23:38:40.227Z,46.80
2019-05-29T23:43:31.123Z,47.00
2019-05-29T23:48:22.020Z,47.50
2019-05-29T23:53:12.910Z,44.90
2019-05-29T23:58:07.830Z,46.80
